Time;durP1;ratioP1;P1;durP2;ratioP2;P2;SDS_P1;SDS_P2;PMS_P1;PMS_P2;Temp;Humidity;BMP_temperature;BMP_pressure;BME280_temperature;BME280_humidity;BME280_pressure;Samples;Min_cycle;Max_cycle;Signal;HPM_P1;HPM_P2
2022/11/24 00:04:29;;;;;;;42.00;23.80;;;;;;;4.16;67.68;98089.27;226823;1240;139202;-62
2022/11/24 00:09:37;;;;;;;41.80;23.10;;;;;;;4.17;67.31;98090.80;226416;1243;138152;-63
2022/11/24 00:15:53;;;;;;;39.30;23.10;;;;;;;4.16;67.51;98091.52;226254;1241;139683;-62
2022/11/24 00:21:33;;;;;;;39.60;23.70;;;;;;;4.13;67.33;98099.57;226870;1235;138331;-62
2022/11/24 00:27:11;;;;;;;40.50;22.40;;;;;;;4.12;67.46;98102.62;226969;1240;137732;-63
2022/11/24 00:32:22;;;;;;;38.10;23.30;;;;;;;4.09;67.34;98105.63;226503;1233;138272;-65
2022/11/24 00:37:53;;;;;;;;;;;;;;;;;;;;;
2022/11/24 00:43:05;;;;;;;35.70;20.80;;;;;;;4.02;67.62;98119.95;227701;1238;138671;-63
2022/11/24 00:49:01;;;;;;;38.10;22.10;;;;;;;3.99;67.67;98126.09;226782;1237;138727;-61
2022/11/24 00:54:17;;;;;;;39.90;22.20;;;;;;;3.97;67.81;98124.80;226998;1238;138491;-60
2022/11/24 00:59:54;;;;;;;41.10;22.60;;;;;;;3.95;67.78;98128.25;226823;1250;138021;-59
2022/11/24 01:06:12;;;;;;;42.50;22.70;;;;;;;3.95;68.26;98124.04;226368;1250;138363;-61
2022/11/24 01:17:38;;;;;;;41.30;22.70;;;;;;;4.10;68.73;98133.81;226598;1249;139702;-61
2022/11/24 01:22:59;;;;;;;41.50;22.00;;;;;;;4.12;68.69;98133.35;227530;1231;138689;-61
2022/11/24 01:28:11;;;;;;;40.30;22.40;;;;;;;4.12;68.62;98138.40;227009;1233;138452;-62
2022/11/24 01:33:36;;;;;;;39.40;21.60;;;;;;;4.09;68.40;98144.73;226771;1234;138469;-61
2022/11/24 01:38:42;;;;;;;40.20;21.50;;;;;;;4.05;68.88;98145.64;226757;1238;138911;-61
2022/11/24 01:43:57;;;;;;;33.80;19.70;;;;;;;4.00;69.26;98149.02;227073;1238;139086;-61
2022/11/24 01:49:57;;;;;;;38.40;21.50;;;;;;;3.97;69.42;98150.04;227105;1240;138121;-61
2022/11/24 01:55:55;;;;;;;30.90;18.30;;;;;;;3.95;69.58;98143.48;227667;1239;138936;-61
2022/11/24 02:01:03;;;;;;;30.90;17.60;;;;;;;3.94;69.35;98152.48;227725;1236;141109;-60
2022/11/24 02:06:52;;;;;;;31.30;19.00;;;;;;;3.93;69.57;98160.81;226600;1241;138871;-61
2022/11/24 02:12:29;;;;;;;31.30;18.10;;;;;;;3.98;69.69;98166.66;227713;1233;138804;-64
2022/11/24 02:18:29;;;;;;;33.70;19.50;;;;;;;4.06;69.16;98171.20;225770;1237;159624;-61
2022/11/24 02:24:21;;;;;;;32.40;18.40;;;;;;;4.01;68.99;98168.80;226816;1237;138266;-61
2022/11/24 02:30:09;;;;;;;33.40;17.40;;;;;;;4.07;69.13;98173.47;225970;1237;138123;-62
2022/11/24 02:35:27;;;;;;;;;;;;;;;4.04;69.03;98174.45;225708;1247;138507;-61
2022/11/24 02:41:10;;;;;;;34.90;18.30;;;;;;;4.02;69.17;98175.27;225874;1253;124364;-61
2022/11/24 02:46:40;;;;;;;31.80;18.00;;;;;;;3.99;69.05;98174.31;225473;1238;138410;-57
2022/11/24 02:52:40;;;;;;;31.50;18.20;;;;;;;4.00;69.40;98173.08;223310;1253;636329;-59
2022/11/24 02:58:11;;;;;;;31.50;17.40;;;;;;;3.97;69.00;98174.47;225194;1248;137534;-60
2022/11/24 03:04:15;;;;;;;31.80;17.40;;;;;;;3.96;69.61;98177.66;225113;1247;137582;-60
2022/11/24 03:09:32;;;;;;;32.20;17.50;;;;;;;3.94;69.57;98179.34;226115;1246;137595;-59
2022/11/24 03:14:50;;;;;;;31.00;18.20;;;;;;;3.94;69.67;98180.73;226284;1231;138554;-61
2022/11/24 03:20:01;;;;;;;29.40;17.60;;;;;;;3.96;69.76;98175.52;225389;1242;139280;-62
2022/11/24 03:25:55;;;;;;;31.80;18.30;;;;;;;4.03;69.37;98173.78;225259;1248;138051;-63
2022/11/24 03:38:22;;;;;;;32.80;17.40;;;;;;;4.10;69.40;98176.60;225472;1244;137511;-62
2022/11/24 03:44:05;;;;;;;35.80;17.80;;;;;;;4.08;69.49;98180.59;225415;1237;138128;-63
2022/11/24 03:50:45;;;;;;;32.80;17.80;;;;;;;4.07;69.49;98181.86;224600;1244;137587;-62
2022/11/24 03:56:01;;;;;;;35.40;17.40;;;;;;;4.03;69.42;98186.41;227047;1235;138458;-63
2022/11/24 04:02:04;;;;;;;89.80;49.00;;;;;;;4.09;69.65;98191.79;225888;1246;137976;-63
2022/11/24 04:07:25;;;;;;;34.70;18.40;;;;;;;4.14;69.75;98200.32;225979;1248;138688;-62
2022/11/24 04:12:45;;;;;;;175.60;100.40;;;;;;;4.11;69.50;98205.35;226144;1238;138221;-63
2022/11/24 04:18:17;;;;;;;32.30;17.90;;;;;;;4.13;69.96;98205.95;226025;1253;138701;-62
2022/11/24 04:24:30;;;;;;;25.40;15.20;;;;;;;4.17;69.31;98212.45;225865;1236;138770;-68
2022/11/24 04:29:42;;;;;;;114.40;64.80;;;;;;;4.23;69.41;98213.55;227033;1234;138165;-63
2022/11/24 04:34:57;;;;;;;33.80;18.90;;;;;;;4.30;69.53;98214.63;227111;1242;137830;-65
2022/11/24 04:41:03;;;;;;;29.20;17.30;;;;;;;4.27;69.01;98216.14;227038;1233;138341;-65
2022/11/24 04:46:24;;;;;;;30.40;17.50;;;;;;;4.26;68.80;98218.67;226228;1236;138089;-67
2022/11/24 04:51:30;;;;;;;31.60;16.80;;;;;;;4.24;68.65;98221.58;225972;1247;138472;-67
2022/11/24 04:56:52;;;;;;;151.70;96.50;;;;;;;4.21;68.88;98225.03;226185;1240;138122;-69
2022/11/24 05:02:02;;;;;;;30.00;17.80;;;;;;;4.25;68.81;98227.16;227057;1238;138309;-74
2022/11/24 05:07:05;;;;;;;28.10;16.40;;;;;;;4.22;68.22;98235.01;227245;1236;137895;-71
2022/11/24 05:12:08;;;;;;;27.20;16.10;;;;;;;4.18;68.34;98239.44;226234;1244;138708;-71
2022/11/24 05:17:12;;;;;;;25.50;15.60;;;;;;;4.12;68.16;98240.42;226233;1241;138289;-64
2022/11/24 05:23:43;;;;;;;27.30;16.00;;;;;;;4.09;68.17;98242.64;226016;1243;138580;-68
2022/11/24 05:37:24;;;;;;;26.30;16.60;;;;;;;4.23;68.03;98245.98;226107;1227;138510;-64
2022/11/24 05:43:32;;;;;;;28.60;16.60;;;;;;;4.21;68.26;98248.02;227446;1244;138280;-64
2022/11/24 05:49:18;;;;;;;;;;;;;;;;;;;;;
2022/11/24 06:10:13;;;;;;;25.90;15.00;;;;;;;4.18;68.08;98277.86;221237;1257;635110;-67
2022/11/24 06:16:09;;;;;;;26.60;17.20;;;;;;;4.09;67.99;98282.52;223154;1238;137701;-67
2022/11/24 06:21:37;;;;;;;30.00;17.50;;;;;;;4.06;68.46;98290.00;223181;1236;137694;-66
2022/11/24 06:26:47;;;;;;;26.70;16.40;;;;;;;3.99;68.70;98294.19;223151;1244;138160;-67
2022/11/24 06:31:51;;;;;;;29.00;16.90;;;;;;;3.95;68.76;98295.27;222976;1245;137540;-66
2022/11/24 06:37:11;;;;;;;27.40;15.40;;;;;;;3.95;69.00;98300.87;222933;1246;138697;-66
2022/11/24 06:42:23;;;;;;;31.70;17.70;;;;;;;4.00;68.91;98300.64;224743;1234;139004;-63
2022/11/24 06:49:18;;;;;;;29.50;17.30;;;;;;;4.12;68.84;98305.02;224509;1236;137527;-64
2022/11/24 06:56:30;;;;;;;31.70;19.70;;;;;;;4.15;68.24;98314.00;224964;1240;137510;-66
2022/11/24 07:07:34;;;;;;;36.90;21.00;;;;;;;4.17;68.46;98320.40;221995;1246;653521;-67
2022/11/24 07:13:55;;;;;;;36.40;19.90;;;;;;;4.18;68.36;98327.91;223460;1244;137371;-65
2022/11/24 07:25:49;;;;;;;47.80;23.80;;;;;;;4.10;68.24;98338.96;223609;1237;137072;-66
2022/11/24 07:32:23;;;;;;;44.20;23.50;;;;;;;4.08;68.43;98346.80;224310;1237;137506;-68
2022/11/24 07:38:02;;;;;;;44.60;23.10;;;;;;;4.04;68.55;98350.64;224163;1237;137630;-68
2022/11/24 07:43:07;;;;;;;;;;;;;;;4.00;69.01;98347.01;224382;1237;138109;-68
2022/11/24 07:49:04;;;;;;;44.00;22.50;;;;;;;4.10;69.41;98347.95;224781;1240;124301;-67
2022/11/24 07:54:32;;;;;;;44.40;22.90;;;;;;;4.09;69.23;98345.87;224307;1237;138112;-64
2022/11/24 07:59:46;;;;;;;39.60;22.80;;;;;;;4.11;69.38;98346.84;224194;1237;137736;-66
2022/11/24 08:05:32;;;;;;;42.90;23.20;;;;;;;4.11;69.40;98352.09;223773;1237;138317;-67
2022/11/24 08:12:50;;;;;;;45.30;22.20;;;;;;;4.07;69.35;98360.39;222907;1244;138509;-67
2022/11/24 08:18:56;;;;;;;42.70;21.70;;;;;;;4.00;69.57;98364.55;223373;1240;138003;-68
2022/11/24 08:24:50;;;;;;;44.90;23.40;;;;;;;3.91;69.89;98374.25;223227;1241;137418;-67
2022/11/24 08:30:23;;;;;;;41.80;22.70;;;;;;;3.90;69.96;98373.08;223425;1239;137917;-67
2022/11/24 08:35:55;;;;;;;39.50;21.70;;;;;;;3.88;70.12;98376.30;223771;1237;138387;-64
2022/11/24 08:54:17;;;;;;;38.00;22.00;;;;;;;4.20;69.69;98385.03;221053;1239;635991;-65
2022/11/24 08:59:53;;;;;;;36.50;20.90;;;;;;;4.19;69.81;98390.33;222579;1241;137246;-67
2022/11/24 09:05:17;;;;;;;35.50;20.10;;;;;;;4.16;69.82;98390.65;222847;1241;137715;-64
2022/11/24 09:11:09;;;;;;;36.50;21.10;;;;;;;4.09;69.79;98390.48;223037;1240;137677;-64
2022/11/24 09:16:25;;;;;;;36.30;21.40;;;;;;;4.08;69.93;98390.85;223169;1240;138298;-67
2022/11/24 09:21:35;;;;;;;34.20;20.00;;;;;;;4.08;70.11;98393.48;223172;1233;139391;-66
2022/11/24 09:26:55;;;;;;;36.40;21.30;;;;;;;4.08;70.08;98390.19;223036;1240;137720;-65
2022/11/24 09:32:36;;;;;;;132.20;78.90;;;;;;;4.12;70.14;98394.19;223070;1240;137849;-66
2022/11/24 09:39:14;;;;;;;37.10;21.00;;;;;;;4.22;70.36;98396.35;222797;1240;138173;-65
2022/11/24 09:45:38;;;;;;;38.00;21.10;;;;;;;4.21;69.99;98399.54;222550;1236;137908;-66
2022/11/24 09:51:33;;;;;;;36.10;21.10;;;;;;;4.26;70.07;98395.10;222331;1237;138716;-64
2022/11/24 09:57:39;;;;;;;32.60;19.40;;;;;;;4.32;70.07;98394.27;222332;1235;138002;-66
2022/11/24 10:03:07;;;;;;;33.60;20.20;;;;;;;4.31;70.06;98394.51;222268;1251;107468;-65
2022/11/24 10:08:44;;;;;;;32.00;18.60;;;;;;;4.33;69.90;98396.05;223211;1235;137855;-64
2022/11/24 10:14:26;;;;;;;32.40;19.40;;;;;;;4.30;69.76;98396.67;223846;1235;137898;-67
2022/11/24 10:20:28;;;;;;;28.80;18.10;;;;;;;4.24;70.33;98395.70;224089;1237;138301;-67
2022/11/24 10:26:56;;;;;;;32.20;18.30;;;;;;;4.29;70.30;98393.05;223419;1237;137706;-65
2022/11/24 10:33:37;;;;;;;28.50;17.00;;;;;;;4.36;70.33;98390.08;221304;1251;636333;-68
2022/11/24 10:39:15;;;;;;;30.00;16.80;;;;;;;4.34;70.15;98392.63;223588;1240;138420;-65
2022/11/24 10:45:38;;;;;;;26.00;16.80;;;;;;;4.47;70.45;98393.61;222916;1240;138169;-66
2022/11/24 10:50:52;;;;;;;95.70;55.90;;;;;;;4.58;70.27;98391.15;223677;1236;137920;-67
2022/11/24 10:56:04;;;;;;;29.40;18.20;;;;;;;4.66;69.91;98391.61;224288;1236;138177;-65
2022/11/24 11:01:56;;;;;;;30.00;16.20;;;;;;;4.65;69.90;98393.09;223951;1236;137568;-65
2022/11/24 11:07:21;;;;;;;27.20;15.60;;;;;;;4.56;69.55;98390.69;224079;1236;159751;-65
2022/11/24 11:12:41;;;;;;;23.60;15.40;;;;;;;4.48;69.86;98391.92;224254;1236;138270;-65
2022/11/24 11:18:31;;;;;;;24.20;15.90;;;;;;;4.43;69.57;98395.70;224992;1236;137916;-66
2022/11/24 11:37:55;;;;;;;31.60;18.80;;;;;;;4.24;70.47;98399.58;224872;1234;138063;-68
2022/11/24 11:43:26;;;;;;;33.20;21.00;;;;;;;4.23;70.77;98398.39;225004;1234;138339;-66
2022/11/24 11:49:27;;;;;;;42.60;24.60;;;;;;;4.34;70.70;98399.66;225167;1235;142222;-67
2022/11/24 11:55:50;;;;;;;43.90;24.80;;;;;;;4.36;70.34;98404.84;225108;1235;138661;-67
2022/11/24 12:01:28;;;;;;;44.80;25.50;;;;;;;4.39;70.55;98400.82;225192;1234;137909;-66
2022/11/24 12:12:47;;;;;;;44.60;26.60;;;;;;;4.42;70.29;98399.28;222061;1246;657914;-67
2022/11/24 12:18:41;;;;;;;44.00;26.10;;;;;;;4.41;70.16;98401.05;223304;1236;138629;-66
2022/11/24 12:25:01;;;;;;;50.20;27.60;;;;;;;4.44;70.33;98406.17;224060;1237;137820;-65
2022/11/24 12:30:23;;;;;;;46.20;26.90;;;;;;;4.38;70.17;98408.96;224038;1238;137467;-66
2022/11/24 12:36:42;;;;;;;186.40;106.70;;;;;;;4.31;70.38;98413.12;224094;1240;94689;-67
2022/11/24 12:42:40;;;;;;;44.50;25.70;;;;;;;4.34;70.36;98411.95;223978;1243;137253;-68
2022/11/24 13:02:35;;;;;;;30.60;18.90;;;;;;;4.08;70.49;98435.61;223940;1237;137341;-66
2022/11/24 13:15:56;;;;;;;12.40;9.00;;;;;;;3.88;70.56;98443.55;222982;1244;137981;-69
2022/11/24 13:22:13;;;;;;;10.70;7.90;;;;;;;3.78;70.37;98444.13;223444;1237;137454;-67
2022/11/24 13:28:08;;;;;;;10.60;7.60;;;;;;;3.75;70.15;98451.81;224113;1237;139256;-65
2022/11/24 13:35:07;;;;;;;10.40;7.30;;;;;;;3.83;70.25;98456.90;224234;1237;138614;-66
2022/11/24 13:44:27;;;;;;;10.90;7.30;;;;;;;3.84;70.07;98475.46;221445;1251;635986;-68
2022/11/24 13:50:04;;;;;;;11.80;8.50;;;;;;;3.82;70.02;98479.63;223354;1236;137231;-67
2022/11/24 13:55:18;;;;;;;10.90;7.90;;;;;;;3.77;70.10;98483.85;223385;1243;137375;-67
2022/11/24 14:00:27;;;;;;;12.00;8.70;;;;;;;3.75;70.15;98494.45;223607;1239;139311;-67
2022/11/24 14:05:50;;;;;;;12.20;8.40;;;;;;;3.73;70.28;98497.88;223575;1246;137604;-69
2022/11/24 14:11:10;;;;;;;12.10;8.80;;;;;;;3.69;70.04;98508.06;223248;1240;137051;-66
2022/11/24 14:16:45;;;;;;;11.50;8.60;;;;;;;3.63;70.12;98514.61;223137;1240;137256;-65
2022/11/24 14:22:26;;;;;;;14.40;9.50;;;;;;;3.59;69.96;98528.11;223620;1243;137367;-66
2022/11/24 14:27:38;;;;;;;13.20;9.20;;;;;;;3.56;69.95;98537.36;223472;1238;137726;-65
2022/11/24 14:32:54;;;;;;;11.50;8.20;;;;;;;3.54;69.78;98545.34;223727;1237;138515;-67
2022/11/24 14:38:01;;;;;;;12.60;8.80;;;;;;;3.56;69.51;98551.23;223367;1236;138024;-67
2022/11/24 14:43:20;;;;;;;11.10;7.90;;;;;;;3.55;69.18;98557.91;223481;1243;138142;-68
2022/11/24 14:48:35;;;;;;;11.90;8.70;;;;;;;3.53;69.34;98557.83;223511;1242;138208;-68
2022/11/24 14:53:45;;;;;;;12.50;8.70;;;;;;;3.52;69.28;98562.05;223554;1243;137478;-67
2022/11/24 14:58:49;;;;;;;15.40;8.90;;;;;;;3.47;69.11;98569.29;223885;1237;138280;-65
2022/11/24 15:04:17;;;;;;;11.90;8.80;;;;;;;3.41;69.39;98578.34;224148;1240;137530;-67
2022/11/24 15:09:46;;;;;;;14.00;8.70;;;;;;;3.34;69.70;98584.39;224118;1241;137651;-66
2022/11/24 15:15:34;;;;;;;14.40;9.60;;;;;;;3.32;69.40;98588.14;224190;1233;137495;-66
2022/11/24 15:21:34;;;;;;;15.20;10.90;;;;;;;3.28;69.74;98599.68;223899;1237;139231;-67
2022/11/24 15:26:48;;;;;;;16.20;10.70;;;;;;;3.29;69.41;98611.39;223992;1237;137959;-70
2022/11/24 15:32:26;;;;;;;14.40;10.70;;;;;;;3.29;68.83;98615.95;223836;1237;138488;-67
2022/11/24 15:37:57;;;;;;;15.70;10.80;;;;;;;3.32;68.51;98619.53;224417;1237;137892;-66
2022/11/24 15:43:30;;;;;;;16.50;10.60;;;;;;;3.26;68.53;98631.67;224278;1237;137901;-69
2022/11/24 15:48:56;;;;;;;18.20;12.30;;;;;;;3.28;68.57;98634.59;224366;1240;138408;-66
2022/11/24 15:55:06;;;;;;;17.90;12.80;;;;;;;3.33;68.53;98637.56;224235;1240;138294;-65
2022/11/24 16:00:31;;;;;;;18.60;13.50;;;;;;;3.38;68.64;98635.45;223972;1233;138529;-65
2022/11/24 16:05:40;;;;;;;20.20;13.80;;;;;;;3.46;68.68;98640.55;224738;1240;137430;-67
2022/11/24 16:11:18;;;;;;;19.10;13.40;;;;;;;3.47;68.47;98645.77;224318;1237;137945;-66
2022/11/24 16:16:53;;;;;;;22.40;14.50;;;;;;;3.39;68.44;98652.92;223956;1234;138183;-67
2022/11/24 16:22:16;;;;;;;53.10;32.10;;;;;;;3.37;69.31;98657.91;224180;1237;137980;-67
2022/11/24 16:27:24;;;;;;;25.30;15.50;;;;;;;3.55;69.16;98661.21;223730;1237;139008;-67
2022/11/24 16:33:06;;;;;;;22.40;13.80;;;;;;;3.82;72.52;98664.31;224077;1236;138125;-67
2022/11/24 16:39:13;;;;;;;22.80;15.60;;;;;;;4.07;68.17;98666.46;223975;1235;138145;-66
2022/11/24 16:44:28;;;;;;;22.60;14.50;;;;;;;3.93;68.06;98670.04;223712;1237;138930;-66
2022/11/24 16:50:11;;;;;;;22.90;14.40;;;;;;;3.74;68.02;98670.63;223909;1237;138138;-65
2022/11/24 16:55:34;;;;;;;21.70;13.00;;;;;;;3.58;68.02;98677.58;224546;1237;138189;-66
2022/11/24 17:07:29;;;;;;;17.30;11.10;;;;;;;3.36;67.95;98688.63;224634;1234;137985;-64
2022/11/24 17:13:17;;;;;;;84.40;49.50;;;;;;;3.32;68.36;98689.64;224218;1234;138175;-67
2022/11/24 17:18:45;;;;;;;15.90;10.60;;;;;;;3.34;68.27;98691.33;224184;1237;138031;-68
2022/11/24 17:23:55;;;;;;;15.00;10.50;;;;;;;3.27;68.08;98692.48;224394;1240;138025;-66
2022/11/24 17:29:03;;;;;;;15.10;9.70;;;;;;;3.18;68.18;98698.77;224133;1240;138359;-66
2022/11/24 17:34:44;;;;;;;17.60;12.30;;;;;;;3.12;68.57;98707.08;224059;1237;137770;-65
2022/11/24 17:40:36;;;;;;;580.90;372.00;;;;;;;3.14;69.66;98716.62;224397;1237;137784;-68
2022/11/24 17:45:56;;;;;;;200.90;126.20;;;;;;;3.59;69.88;98719.66;224295;1232;138827;-69
2022/11/24 17:51:18;;;;;;;21.00;13.40;;;;;;;3.76;68.78;98724.74;224019;1237;139166;-69
2022/11/24 18:00:56;;;;;;;19.70;13.20;;;;;;;3.63;67.92;98734.94;221630;1250;656420;-69
2022/11/24 18:06:35;;;;;;;22.80;14.40;;;;;;;3.56;68.07;98738.02;222827;1241;137096;-66
2022/11/24 18:11:38;;;;;;;22.90;14.30;;;;;;;3.48;68.25;98739.36;222852;1237;137763;-71
2022/11/24 18:16:55;;;;;;;22.20;14.50;;;;;;;3.42;68.64;98750.46;222713;1240;137337;-69
2022/11/24 18:22:05;;;;;;;24.50;15.10;;;;;;;3.38;68.74;98755.00;222941;1239;137920;-70
2022/11/24 18:27:09;;;;;;;21.70;15.30;;;;;;;3.32;69.03;98758.38;223919;1237;137560;-69
2022/11/24 18:32:15;;;;;;;23.90;15.70;;;;;;;3.29;69.28;98764.96;224005;1236;138306;-68
2022/11/24 18:37:23;;;;;;;26.70;16.60;;;;;;;3.28;69.64;98766.05;224109;1237;137391;-69
2022/11/24 18:43:16;;;;;;;24.00;15.60;;;;;;;3.24;69.84;98765.84;223751;1236;137403;-70
2022/11/24 18:48:40;;;;;;;22.30;15.50;;;;;;;3.22;69.98;98769.80;223754;1237;141451;-69
2022/11/24 18:53:53;;;;;;;83.60;60.00;;;;;;;3.25;70.45;98775.65;223894;1237;138784;-67
2022/11/24 18:59:04;;;;;;;78.10;52.10;;;;;;;3.51;70.66;98774.65;223823;1237;138515;-69
2022/11/24 19:04:40;;;;;;;25.30;16.40;;;;;;;3.84;70.33;98778.32;223823;1230;138177;-67
2022/11/24 19:10:09;;;;;;;25.60;17.10;;;;;;;3.84;69.51;98779.73;224019;1237;137872;-68
2022/11/24 19:15:14;;;;;;;24.90;16.20;;;;;;;3.75;69.61;98789.55;223806;1237;138104;-69
2022/11/24 19:20:22;;;;;;;26.20;17.10;;;;;;;3.68;69.71;98795.63;223849;1235;137975;-66
2022/11/24 19:25:37;;;;;;;24.40;17.20;;;;;;;3.66;69.84;98799.90;223895;1230;137503;-67
2022/11/24 19:30:52;;;;;;;26.50;17.70;;;;;;;3.61;70.07;98803.77;223697;1231;137924;-67
2022/11/24 19:36:18;;;;;;;29.70;18.70;;;;;;;3.54;70.41;98809.46;223728;1237;137544;-69
2022/11/24 19:41:36;;;;;;;29.00;18.60;;;;;;;3.50;70.24;98809.98;223744;1236;137690;-67
2022/11/24 19:46:51;;;;;;;29.20;19.00;;;;;;;3.47;70.80;98817.42;223881;1234;138635;-67
2022/11/24 19:52:07;;;;;;;29.30;18.20;;;;;;;3.49;70.93;98820.54;223808;1237;138239;-68
2022/11/24 19:58:31;;;;;;;30.80;20.10;;;;;;;3.53;70.82;98830.02;223749;1237;138403;-69
2022/11/24 20:03:38;;;;;;;31.60;20.40;;;;;;;3.59;70.97;98825.60;223359;1237;137871;-68
2022/11/24 20:15:19;;;;;;;32.70;22.40;;;;;;;3.95;71.26;98835.11;223770;1237;138151;-64
2022/11/24 20:20:23;;;;;;;39.60;27.20;;;;;;;3.93;70.98;98845.52;224051;1235;137769;-65
2022/11/24 20:26:13;;;;;;;33.50;20.80;;;;;;;3.91;70.47;98848.79;224026;1230;138073;-66
2022/11/24 20:44:03;;;;;;;31.90;19.60;;;;;;;3.87;70.72;98870.71;222641;1247;137639;-66
2022/11/24 20:49:42;;;;;;;27.60;18.30;;;;;;;3.88;70.64;98869.43;222591;1244;137530;-66
2022/11/24 20:55:32;;;;;;;;;;;;;;;;;;;;;
2022/11/24 21:01:39;;;;;;;22.90;16.50;;;;;;;3.83;70.43;98882.77;222481;1243;138067;-68
2022/11/24 21:13:21;;;;;;;26.30;17.20;;;;;;;3.70;70.91;98889.91;222178;1251;137411;-67
2022/11/24 21:19:29;;;;;;;26.90;16.70;;;;;;;3.69;71.17;98890.66;222363;1248;138111;-67
2022/11/24 21:24:37;;;;;;;22.60;16.10;;;;;;;3.71;71.14;98892.52;222110;1241;137733;-67
2022/11/24 21:30:27;;;;;;;23.90;15.50;;;;;;;3.67;71.16;98893.01;221502;1253;137825;-67
2022/11/24 21:35:37;;;;;;;21.90;15.20;;;;;;;3.71;71.28;98899.73;221604;1251;138698;-65
2022/11/24 21:41:07;;;;;;;24.00;16.10;;;;;;;3.77;71.21;98908.97;221517;1250;138357;-64
2022/11/24 21:46:15;;;;;;;21.70;15.70;;;;;;;3.84;71.13;98915.21;221362;1247;138460;-64
2022/11/24 21:51:46;;;;;;;26.10;16.30;;;;;;;3.86;71.07;98922.48;221674;1248;137895;-64
2022/11/24 21:57:21;;;;;;;;;;;;;;;;;;;;;
2022/11/24 22:02:53;;;;;;;28.60;16.10;;;;;;;3.81;71.05;98927.95;222313;1248;138040;-63
2022/11/24 22:08:12;;;;;;;22.20;15.70;;;;;;;3.76;71.12;98929.67;222065;1247;138108;-63
2022/11/24 22:13:19;;;;;;;24.90;16.10;;;;;;;3.74;71.45;98929.60;222419;1250;137470;-64
2022/11/24 22:18:41;;;;;;;23.10;15.60;;;;;;;3.71;71.30;98930.95;222111;1243;138206;-63
2022/11/24 22:30:40;;;;;;;26.80;16.20;;;;;;;3.68;71.45;98933.85;222182;1245;138032;-64
2022/11/24 22:35:56;;;;;;;25.80;15.90;;;;;;;3.71;71.56;98942.53;222672;1246;138207;-66
2022/11/24 22:41:50;;;;;;;27.30;16.60;;;;;;;3.78;71.54;98943.14;222114;1244;138792;-66
2022/11/24 22:48:19;;;;;;;27.40;17.70;;;;;;;3.84;71.35;98957.83;222636;1250;137758;-65
2022/11/24 22:54:44;;;;;;;30.40;18.00;;;;;;;3.89;71.21;98956.43;222163;1243;138335;-67
2022/11/24 23:00:25;;;;;;;27.20;17.80;;;;;;;3.89;71.27;98959.23;222265;1249;137632;-67
2022/11/24 23:06:45;;;;;;;26.70;17.80;;;;;;;3.89;70.93;98967.65;222194;1244;137422;-63
2022/11/24 23:12:04;;;;;;;30.60;19.20;;;;;;;3.85;70.92;98969.92;222210;1247;137977;-66
2022/11/24 23:27:25;;;;;;;30.20;19.00;;;;;;;4.07;70.90;98961.19;221025;1252;657206;-67
2022/11/24 23:47:34;;;;;;;;;;;;;;;;;;;;;
2022/11/24 23:53:10;;;;;;;36.80;22.70;;;;;;;4.06;70.61;98967.20;223133;1233;137493;-70
2022/11/24 23:59:31;;;;;;;34.90;22.00;;;;;;;3.98;70.61;98970.81;222978;1233;138880;-73
